Terminal Aerodrome Forecast
Issued by NWS

Home | Current Version | Previous Version | Text Only | Print | Product List | Glossary On
Versions: 1 2 3 4 5 6 7 8 9 10 11 12 13 14 15
104
FTUS45 KRIW 280523
TAFWRL
TAF
KWRL 280523Z 2806/2906 35016G26KT P6SM VCSH BKN025
      TEMPO 2806/2809 3SM -SN OVC015
     FM280900 34012G20KT 2SM -SN OVC012
     FM281500 35012KT 5SM -SN OVC024
     FM281800 36008KT P6SM SCT025 BKN040
     FM290100 VRB05KT P6SM BKN070=

USA.gov is the U.S. government's official web portal to all federal, state and local government web resources and services.